11:17
Airports
Links
Donate
Help keep this website running!
PayPal
Bitcoin
METAR
KMOT 111054Z AUTO 30020G30KT 10SM BKN020 BKN025 OVC034 03/01 A2996 RMK AO2 PK WND 30030/1048 RAB19E30 SLP161 P0000 T00330006
Current Weather Conditions at KMOT
MVFR 10:54:00 11-12-17
Automated station, no observer
Altimeter:29.96 hg
Temp:3.3°c 37°f
Dew point:0.6°c 32°f
Wind:20 knots, 23 mph, 10 m/s, from 300°
Visibility:10.0 statute miles
3400(OVC) Overcast
2500(BKN) Broken
2000(BKN) Broken
Past METAR reports
MVFR 09:54:00 11-12-17
Automated station, no observer
Altimeter:29.92 hg
Temp:4.4°c 39°f
Dew point:0.0°c 32°f
Wind:22 knots, 25.3 mph, 11 m/s, from 300°
Visibility:10.0 statute miles
2400(OVC) Overcast
KMOT 110954Z AUTO 30022G30KT 10SM OVC024 04/00 A2992 RMK AO2 PK WND 30033/0858 SLP145 T00440000
MVFR 08:54:00 11-12-17
Automated station, no observer
Altimeter:29.88 hg
Temp:5.0°c 41°f
Dew point:0.6°c 32°f
Wind:23 knots, 26.5 mph, 12 m/s, from 300°
Visibility:10.0 statute miles
2200(OVC) Overcast
KMOT 110854Z AUTO 30023G32KT 10SM OVC022 05/01 A2988 RMK AO2 PK WND 31038/0806 SLP131 T00500006 53025
MVFR 07:54:00 11-12-17
Automated station, no observer
Altimeter:29.85 hg
Temp:5.0°c 41°f
Dew point:0.0°c 32°f
Wind:28 knots, 32.2 mph, 14 m/s, from 300°
Visibility:10.0 statute miles
2500(OVC) Overcast
KMOT 110754Z AUTO 30028G37KT 10SM OVC025 05/00 A2985 RMK AO2 PK WND 28040/0657 SLP119 T00500000
MVFR 07:17:00 11-12-17
Automated station, no observer
Altimeter:29.82 hg
Temp:5.0°c 41°f
Dew point:0.0°c 32°f
Wind:30 knots, 34.5 mph, 15 m/s, from 290°
Visibility:10.0 statute miles
7000(OVC) Overcast
2600(BKN) Broken
KMOT 110717Z AUTO 29030G38KT 10SM BKN026 OVC070 05/00 A2982 RMK AO2 PK WND 28040/0657 T00500000
VFR 06:54:00 11-12-17
Automated station, no observer
Altimeter:29.81 hg
Temp:5.0°c 41°f
Dew point:0.6°c 32°f
Wind:27 knots, 31.1 mph, 14 m/s, from 290°
Visibility:10.0 statute miles
7000(OVC) Overcast
3300(FEW) A few
KMOT 110654Z AUTO 29027G39KT 10SM FEW033 OVC070 05/01 A2981 RMK AO2 PK WND 28040/0637 SLP108 T00500006
VFR 05:54:00 11-12-17
Automated station, no observer
Altimeter:29.80 hg
Temp:4.4°c 39°f
Dew point:0.6°c 32°f
Wind:25 knots, 28.8 mph, 13 m/s, from 280°
Visibility:10.0 statute miles
7000(OVC) Overcast
5500(BKN) Broken
3500(SCT) Scattered
KMOT 110554Z AUTO 28025G33KT 10SM SCT035 BKN055 OVC070 04/01 A2980 RMK AO2 PK WND 29044/0528 RAB34E51 SLP107 P0000 60000 T00440006 10072 20039 400891006 55018
TAF
KMOT 110639Z 1107/1206 29033G42KT P6SM VCSH SCT030 BKN080 TEMPO 1107/1108 BKN025 FM110800 31028G38KT P6SM VCSH OVC025 FM111400 31018G27KT P6SM -SN OVC015 FM111800 32016G24KT P6SM OVC015 FM111900 32015KT P6SM OVC020
Forecast at KMOT
07:00 11-12-17 to 08:00 11-12-17
VCSH
Wind:33 Knots from 290°
Visibility:6.21 statute miles
3000SCT Scattered
8000BKN Broken
TEMPO 07:00 11-12-17 to 08:00 11-12-17
2500BKN Broken
FM 08:00 11-12-17 to 14:00 11-12-17
VCSH
Wind:28 Knots from 310°
Visibility:6.21 statute miles
2500OVC Overcast
FM 14:00 11-12-17 to 18:00 11-12-17
-SN
Wind:18 Knots from 310°
Visibility:6.21 statute miles
1500OVC Overcast
FM 18:00 11-12-17 to 19:00 11-12-17
Wind:16 Knots from 320°
Visibility:6.21 statute miles
1500OVC Overcast
FM 19:00 11-12-17 to 06:00 12-12-17
Wind:15 Knots from 320°
Visibility:6.21 statute miles
2000OVC Overcast